Laird, Nebraska
Current Conditions -  °F | °C
As of 3:15 AM on Monday 22 Dec 2014 (Local Time) from KHDE Reporting Station
Haze Haze  
Wind Chill: 29°   Ceiling: 100
Heat Index: 34°   Visibility: 0.75mi
Dew Point: 33°   Wind: 6mph
Humidity: 96%   Direction: 250°WSW
Pressure: 29.51"   Gusts: NA
Location:  40.4734°N, 99.4675°W
Report Text: KHDE 220915Z AUTO 25005KT 3/4SM BR BKN001 OVC060 01/00 A2951 RMK AO2 T00100004
Loading
Personal Weather Stations






























Interactive Weather Map New forecast layout! Learn more

10-Day Weather Forecast

Advertisements
Track Severe Weather on mobile